sensor_id;sensor_type;location;lat;lon;timestamp;P1;durP1;ratioP1;P2;durP2;ratioP2
74213;SDS011;62576;55.694;37.494;2023-04-03T00:00:51;12.10;;;6.40;;
74213;SDS011;62576;55.694;37.494;2023-04-03T00:03:22;14.40;;;6.30;;
74213;SDS011;62576;55.694;37.494;2023-04-03T00:05:52;13.23;;;6.72;;
74213;SDS011;62576;55.694;37.494;2023-04-03T00:08:22;11.70;;;6.30;;
74213;SDS011;62576;55.694;37.494;2023-04-03T00:10:53;12.93;;;6.75;;
74213;SDS011;62576;55.694;37.494;2023-04-03T00:13:24;12.85;;;6.35;;
74213;SDS011;62576;55.694;37.494;2023-04-03T00:15:55;11.35;;;5.93;;
74213;SDS011;62576;55.694;37.494;2023-04-03T00:18:25;14.00;;;6.60;;
74213;SDS011;62576;55.694;37.494;2023-04-03T00:20:55;14.25;;;7.05;;
74213;SDS011;62576;55.694;37.494;2023-04-03T00:23:25;11.52;;;6.85;;
74213;SDS011;62576;55.694;37.494;2023-04-03T00:25:55;16.92;;;7.43;;
74213;SDS011;62576;55.694;37.494;2023-04-03T00:28:27;13.45;;;6.53;;
74213;SDS011;62576;55.694;37.494;2023-04-03T00:30:57;14.43;;;6.63;;
74213;SDS011;62576;55.694;37.494;2023-04-03T00:33:27;14.25;;;6.65;;
74213;SDS011;62576;55.694;37.494;2023-04-03T00:36:04;13.57;;;6.30;;
74213;SDS011;62576;55.694;37.494;2023-04-03T00:38:36;14.73;;;6.50;;
74213;SDS011;62576;55.694;37.494;2023-04-03T00:41:07;11.13;;;6.20;;
74213;SDS011;62576;55.694;37.494;2023-04-03T00:43:41;15.55;;;6.63;;
74213;SDS011;62576;55.694;37.494;2023-04-03T00:46:11;13.30;;;6.53;;
74213;SDS011;62576;55.694;37.494;2023-04-03T00:48:42;13.82;;;6.63;;
74213;SDS011;62576;55.694;37.494;2023-04-03T00:53:47;13.48;;;6.63;;
74213;SDS011;62576;55.694;37.494;2023-04-03T00:56:22;12.90;;;6.90;;
74213;SDS011;62576;55.694;37.494;2023-04-03T00:58:56;12.52;;;6.82;;
74213;SDS011;62576;55.694;37.494;2023-04-03T01:01:30;13.02;;;6.93;;
74213;SDS011;62576;55.694;37.494;2023-04-03T01:04:01;16.52;;;7.78;;
74213;SDS011;62576;55.694;37.494;2023-04-03T01:06:32;14.07;;;7.22;;
74213;SDS011;62576;55.694;37.494;2023-04-03T01:09:04;13.15;;;7.20;;
74213;SDS011;62576;55.694;37.494;2023-04-03T01:11:35;14.18;;;6.75;;
74213;SDS011;62576;55.694;37.494;2023-04-03T01:16:39;14.95;;;6.90;;
74213;SDS011;62576;55.694;37.494;2023-04-03T01:19:11;16.35;;;6.95;;
74213;SDS011;62576;55.694;37.494;2023-04-03T01:21:53;14.30;;;6.93;;
74213;SDS011;62576;55.694;37.494;2023-04-03T01:24:33;14.60;;;7.07;;
74213;SDS011;62576;55.694;37.494;2023-04-03T01:27:05;19.52;;;7.60;;
74213;SDS011;62576;55.694;37.494;2023-04-03T01:29:39;14.65;;;7.80;;
74213;SDS011;62576;55.694;37.494;2023-04-03T01:32:10;13.98;;;7.30;;
74213;SDS011;62576;55.694;37.494;2023-04-03T01:34:40;20.77;;;7.88;;
74213;SDS011;62576;55.694;37.494;2023-04-03T01:37:09;14.68;;;7.95;;
74213;SDS011;62576;55.694;37.494;2023-04-03T01:39:40;15.63;;;7.50;;
74213;SDS011;62576;55.694;37.494;2023-04-03T01:42:10;16.40;;;8.15;;
74213;SDS011;62576;55.694;37.494;2023-04-03T01:44:40;16.70;;;8.18;;
74213;SDS011;62576;55.694;37.494;2023-04-03T01:47:14;13.73;;;7.63;;
74213;SDS011;62576;55.694;37.494;2023-04-03T01:52:10;15.05;;;8.38;;
74213;SDS011;62576;55.694;37.494;2023-04-03T01:54:40;16.60;;;7.70;;
74213;SDS011;62576;55.694;37.494;2023-04-03T01:57:10;15.43;;;7.93;;
74213;SDS011;62576;55.694;37.494;2023-04-03T01:59:41;16.48;;;7.93;;
74213;SDS011;62576;55.694;37.494;2023-04-03T02:02:13;21.02;;;7.97;;
74213;SDS011;62576;55.694;37.494;2023-04-03T02:04:44;18.95;;;8.43;;
74213;SDS011;62576;55.694;37.494;2023-04-03T02:07:14;13.20;;;7.90;;
74213;SDS011;62576;55.694;37.494;2023-04-03T02:09:43;14.32;;;7.95;;
74213;SDS011;62576;55.694;37.494;2023-04-03T02:12:14;16.65;;;8.18;;
74213;SDS011;62576;55.694;37.494;2023-04-03T02:14:43;16.63;;;8.10;;
74213;SDS011;62576;55.694;37.494;2023-04-03T02:17:15;16.95;;;9.63;;
74213;SDS011;62576;55.694;37.494;2023-04-03T02:19:45;13.82;;;7.93;;
74213;SDS011;62576;55.694;37.494;2023-04-03T02:22:15;16.65;;;8.40;;
74213;SDS011;62576;55.694;37.494;2023-04-03T02:24:45;14.52;;;8.13;;
74213;SDS011;62576;55.694;37.494;2023-04-03T02:27:15;17.20;;;8.48;;
74213;SDS011;62576;55.694;37.494;2023-04-03T02:29:45;15.73;;;8.07;;
74213;SDS011;62576;55.694;37.494;2023-04-03T02:32:17;16.30;;;8.45;;
74213;SDS011;62576;55.694;37.494;2023-04-03T02:34:46;14.80;;;8.52;;
74213;SDS011;62576;55.694;37.494;2023-04-03T02:37:17;19.85;;;8.77;;
74213;SDS011;62576;55.694;37.494;2023-04-03T02:39:47;17.02;;;8.75;;
74213;SDS011;62576;55.694;37.494;2023-04-03T02:42:17;14.85;;;8.07;;
74213;SDS011;62576;55.694;37.494;2023-04-03T02:44:47;19.42;;;8.40;;
74213;SDS011;62576;55.694;37.494;2023-04-03T02:47:18;18.80;;;8.25;;
74213;SDS011;62576;55.694;37.494;2023-04-03T02:49:48;17.60;;;8.50;;
74213;SDS011;62576;55.694;37.494;2023-04-03T02:52:15;20.20;;;8.77;;
74213;SDS011;62576;55.694;37.494;2023-04-03T02:54:45;14.73;;;8.20;;
74213;SDS011;62576;55.694;37.494;2023-04-03T02:57:17;17.83;;;8.80;;
74213;SDS011;62576;55.694;37.494;2023-04-03T02:59:47;21.70;;;8.52;;
74213;SDS011;62576;55.694;37.494;2023-04-03T03:02:19;18.23;;;8.75;;
74213;SDS011;62576;55.694;37.494;2023-04-03T03:04:53;19.05;;;8.77;;
74213;SDS011;62576;55.694;37.494;2023-04-03T03:07:23;17.42;;;8.60;;
74213;SDS011;62576;55.694;37.494;2023-04-03T03:09:54;18.20;;;8.52;;
74213;SDS011;62576;55.694;37.494;2023-04-03T03:12:24;17.67;;;8.52;;
74213;SDS011;62576;55.694;37.494;2023-04-03T03:14:54;16.73;;;8.00;;
74213;SDS011;62576;55.694;37.494;2023-04-03T03:17:26;16.20;;;8.48;;
74213;SDS011;62576;55.694;37.494;2023-04-03T03:19:56;19.45;;;8.63;;
74213;SDS011;62576;55.694;37.494;2023-04-03T03:22:29;15.30;;;8.27;;
74213;SDS011;62576;55.694;37.494;2023-04-03T03:24:59;15.88;;;8.35;;
74213;SDS011;62576;55.694;37.494;2023-04-03T03:27:30;18.30;;;8.20;;
74213;SDS011;62576;55.694;37.494;2023-04-03T03:30:00;17.55;;;8.75;;
74213;SDS011;62576;55.694;37.494;2023-04-03T03:32:32;19.67;;;9.23;;
74213;SDS011;62576;55.694;37.494;2023-04-03T03:35:02;16.77;;;8.57;;
74213;SDS011;62576;55.694;37.494;2023-04-03T03:37:32;16.48;;;8.85;;
74213;SDS011;62576;55.694;37.494;2023-04-03T03:40:02;15.70;;;8.88;;
74213;SDS011;62576;55.694;37.494;2023-04-03T03:42:33;17.27;;;8.48;;
74213;SDS011;62576;55.694;37.494;2023-04-03T03:45:03;18.40;;;9.30;;
74213;SDS011;62576;55.694;37.494;2023-04-03T03:47:36;18.15;;;9.20;;
74213;SDS011;62576;55.694;37.494;2023-04-03T03:50:06;19.98;;;9.27;;
74213;SDS011;62576;55.694;37.494;2023-04-03T03:52:38;18.77;;;9.95;;
74213;SDS011;62576;55.694;37.494;2023-04-03T03:55:08;19.55;;;9.20;;
74213;SDS011;62576;55.694;37.494;2023-04-03T03:57:38;17.73;;;9.98;;
74213;SDS011;62576;55.694;37.494;2023-04-03T04:00:09;21.80;;;10.43;;
74213;SDS011;62576;55.694;37.494;2023-04-03T04:02:41;22.13;;;11.10;;
74213;SDS011;62576;55.694;37.494;2023-04-03T04:05:11;22.15;;;10.73;;
74213;SDS011;62576;55.694;37.494;2023-04-03T04:07:41;27.48;;;10.88;;
74213;SDS011;62576;55.694;37.494;2023-04-03T04:10:11;20.35;;;10.32;;
74213;SDS011;62576;55.694;37.494;2023-04-03T04:12:41;24.10;;;10.50;;
74213;SDS011;62576;55.694;37.494;2023-04-03T04:15:12;21.88;;;10.38;;
74213;SDS011;62576;55.694;37.494;2023-04-03T04:17:44;20.90;;;9.95;;
74213;SDS011;62576;55.694;37.494;2023-04-03T04:20:14;19.85;;;10.35;;
74213;SDS011;62576;55.694;37.494;2023-04-03T04:22:44;19.73;;;10.70;;
74213;SDS011;62576;55.694;37.494;2023-04-03T04:25:15;22.60;;;10.65;;
74213;SDS011;62576;55.694;37.494;2023-04-03T04:27:45;23.60;;;11.38;;
74213;SDS011;62576;55.694;37.494;2023-04-03T04:30:15;21.70;;;10.80;;
74213;SDS011;62576;55.694;37.494;2023-04-03T04:32:47;24.52;;;11.02;;
74213;SDS011;62576;55.694;37.494;2023-04-03T04:35:17;21.67;;;11.20;;
74213;SDS011;62576;55.694;37.494;2023-04-03T04:37:48;25.38;;;11.27;;
74213;SDS011;62576;55.694;37.494;2023-04-03T04:40:18;23.92;;;11.25;;
74213;SDS011;62576;55.694;37.494;2023-04-03T04:42:48;20.42;;;10.63;;
74213;SDS011;62576;55.694;37.494;2023-04-03T04:45:19;20.92;;;10.73;;
74213;SDS011;62576;55.694;37.494;2023-04-03T04:47:50;24.13;;;11.68;;
74213;SDS011;62576;55.694;37.494;2023-04-03T04:50:21;23.48;;;11.40;;
74213;SDS011;62576;55.694;37.494;2023-04-03T04:52:48;24.70;;;10.85;;
74213;SDS011;62576;55.694;37.494;2023-04-03T04:55:19;21.90;;;10.80;;
74213;SDS011;62576;55.694;37.494;2023-04-03T04:57:49;23.45;;;11.82;;
74213;SDS011;62576;55.694;37.494;2023-04-03T05:00:19;21.73;;;10.75;;
74213;SDS011;62576;55.694;37.494;2023-04-03T05:02:51;24.05;;;11.55;;
74213;SDS011;62576;55.694;37.494;2023-04-03T05:05:22;24.38;;;11.00;;
74213;SDS011;62576;55.694;37.494;2023-04-03T05:07:52;23.45;;;11.43;;
74213;SDS011;62576;55.694;37.494;2023-04-03T05:10:23;23.95;;;11.63;;
74213;SDS011;62576;55.694;37.494;2023-04-03T05:12:53;21.15;;;11.05;;
74213;SDS011;62576;55.694;37.494;2023-04-03T05:15:23;23.92;;;11.43;;
74213;SDS011;62576;55.694;37.494;2023-04-03T05:17:55;22.13;;;11.05;;
74213;SDS011;62576;55.694;37.494;2023-04-03T05:20:25;23.80;;;11.50;;
74213;SDS011;62576;55.694;37.494;2023-04-03T05:22:55;21.95;;;11.80;;
74213;SDS011;62576;55.694;37.494;2023-04-03T05:25:26;22.73;;;11.52;;
74213;SDS011;62576;55.694;37.494;2023-04-03T05:27:56;23.48;;;12.32;;
74213;SDS011;62576;55.694;37.494;2023-04-03T05:30:26;22.67;;;11.50;;
74213;SDS011;62576;55.694;37.494;2023-04-03T05:32:59;23.33;;;11.57;;
74213;SDS011;62576;55.694;37.494;2023-04-03T05:35:29;24.55;;;11.50;;
74213;SDS011;62576;55.694;37.494;2023-04-03T05:37:59;21.95;;;11.82;;
74213;SDS011;62576;55.694;37.494;2023-04-03T05:40:30;24.58;;;12.27;;
74213;SDS011;62576;55.694;37.494;2023-04-03T05:43:00;28.65;;;12.02;;
74213;SDS011;62576;55.694;37.494;2023-04-03T05:45:30;24.67;;;12.07;;
74213;SDS011;62576;55.694;37.494;2023-04-03T05:48:04;23.45;;;12.35;;
74213;SDS011;62576;55.694;37.494;2023-04-03T05:50:34;21.52;;;11.13;;
74213;SDS011;62576;55.694;37.494;2023-04-03T05:53:12;25.33;;;12.90;;
74213;SDS011;62576;55.694;37.494;2023-04-03T05:55:47;24.75;;;12.13;;
74213;SDS011;62576;55.694;37.494;2023-04-03T05:58:18;25.05;;;11.77;;
74213;SDS011;62576;55.694;37.494;2023-04-03T06:00:48;23.90;;;11.88;;
74213;SDS011;62576;55.694;37.494;2023-04-03T06:03:21;28.65;;;11.73;;
74213;SDS011;62576;55.694;37.494;2023-04-03T06:05:51;24.02;;;12.00;;
74213;SDS011;62576;55.694;37.494;2023-04-03T06:11:57;23.98;;;11.07;;
74213;SDS011;62576;55.694;37.494;2023-04-03T06:14:27;24.88;;;11.02;;
74213;SDS011;62576;55.694;37.494;2023-04-03T06:16:58;26.38;;;11.55;;
74213;SDS011;62576;55.694;37.494;2023-04-03T06:19:31;23.50;;;10.85;;
74213;SDS011;62576;55.694;37.494;2023-04-03T06:22:01;21.52;;;11.90;;
74213;SDS011;62576;55.694;37.494;2023-04-03T06:24:32;24.77;;;11.65;;
74213;SDS011;62576;55.694;37.494;2023-04-03T06:27:03;20.48;;;10.55;;
74213;SDS011;62576;55.694;37.494;2023-04-03T06:29:34;21.20;;;11.13;;
74213;SDS011;62576;55.694;37.494;2023-04-03T06:32:05;18.73;;;10.52;;
74213;SDS011;62576;55.694;37.494;2023-04-03T06:34:37;26.50;;;11.18;;
74213;SDS011;62576;55.694;37.494;2023-04-03T06:37:10;23.92;;;11.35;;
74213;SDS011;62576;55.694;37.494;2023-04-03T06:39:44;22.92;;;10.90;;
74213;SDS011;62576;55.694;37.494;2023-04-03T06:42:14;29.70;;;11.68;;
74213;SDS011;62576;55.694;37.494;2023-04-03T06:44:44;23.48;;;11.25;;
74213;SDS011;62576;55.694;37.494;2023-04-03T06:47:14;19.85;;;11.20;;
74213;SDS011;62576;55.694;37.494;2023-04-03T06:49:48;22.08;;;11.40;;
74213;SDS011;62576;55.694;37.494;2023-04-03T06:52:16;24.67;;;11.57;;
74213;SDS011;62576;55.694;37.494;2023-04-03T06:54:46;23.75;;;11.20;;
74213;SDS011;62576;55.694;37.494;2023-04-03T06:57:16;22.83;;;12.13;;
74213;SDS011;62576;55.694;37.494;2023-04-03T06:59:46;29.50;;;12.15;;
74213;SDS011;62576;55.694;37.494;2023-04-03T07:02:16;25.02;;;12.30;;
74213;SDS011;62576;55.694;37.494;2023-04-03T07:04:48;24.08;;;12.10;;
74213;SDS011;62576;55.694;37.494;2023-04-03T07:07:21;26.35;;;12.65;;
74213;SDS011;62576;55.694;37.494;2023-04-03T07:09:53;24.33;;;11.88;;
74213;SDS011;62576;55.694;37.494;2023-04-03T07:12:24;25.48;;;12.07;;
74213;SDS011;62576;55.694;37.494;2023-04-03T07:14:54;23.50;;;11.85;;
74213;SDS011;62576;55.694;37.494;2023-04-03T07:17:24;31.35;;;12.05;;
74213;SDS011;62576;55.694;37.494;2023-04-03T07:19:56;27.08;;;11.98;;
74213;SDS011;62576;55.694;37.494;2023-04-03T07:22:26;26.42;;;11.68;;
74213;SDS011;62576;55.694;37.494;2023-04-03T07:25:00;25.35;;;11.23;;
74213;SDS011;62576;55.694;37.494;2023-04-03T07:27:31;27.40;;;11.90;;
74213;SDS011;62576;55.694;37.494;2023-04-03T07:30:05;31.05;;;12.10;;
74213;SDS011;62576;55.694;37.494;2023-04-03T07:32:37;32.17;;;13.02;;
74213;SDS011;62576;55.694;37.494;2023-04-03T07:35:09;33.25;;;12.52;;
74213;SDS011;62576;55.694;37.494;2023-04-03T07:37:39;26.63;;;12.60;;
74213;SDS011;62576;55.694;37.494;2023-04-03T07:40:10;28.48;;;12.05;;
74213;SDS011;62576;55.694;37.494;2023-04-03T07:42:40;25.88;;;11.98;;
74213;SDS011;62576;55.694;37.494;2023-04-03T07:45:13;32.05;;;12.70;;
74213;SDS011;62576;55.694;37.494;2023-04-03T07:47:48;28.83;;;11.93;;
74213;SDS011;62576;55.694;37.494;2023-04-03T07:50:22;28.55;;;11.95;;
74213;SDS011;62576;55.694;37.494;2023-04-03T07:52:52;35.53;;;12.48;;
74213;SDS011;62576;55.694;37.494;2023-04-03T07:55:24;29.23;;;12.00;;
74213;SDS011;62576;55.694;37.494;2023-04-03T07:57:55;27.13;;;12.05;;
74213;SDS011;62576;55.694;37.494;2023-04-03T08:00:25;29.88;;;12.30;;
74213;SDS011;62576;55.694;37.494;2023-04-03T08:02:55;26.45;;;11.73;;
74213;SDS011;62576;55.694;37.494;2023-04-03T08:05:27;25.02;;;11.00;;
74213;SDS011;62576;55.694;37.494;2023-04-03T08:07:57;22.00;;;10.43;;
74213;SDS011;62576;55.694;37.494;2023-04-03T08:10:29;20.05;;;9.57;;
74213;SDS011;62576;55.694;37.494;2023-04-03T08:13:00;22.98;;;9.52;;
74213;SDS011;62576;55.694;37.494;2023-04-03T08:15:30;29.20;;;10.20;;
74213;SDS011;62576;55.694;37.494;2023-04-03T08:18:00;22.00;;;10.48;;
74213;SDS011;62576;55.694;37.494;2023-04-03T08:20:33;24.17;;;10.57;;
74213;SDS011;62576;55.694;37.494;2023-04-03T08:23:03;25.55;;;9.93;;
74213;SDS011;62576;55.694;37.494;2023-04-03T08:25:34;29.02;;;11.15;;
74213;SDS011;62576;55.694;37.494;2023-04-03T08:28:07;30.80;;;11.05;;
74213;SDS011;62576;55.694;37.494;2023-04-03T08:30:38;28.02;;;11.13;;
74213;SDS011;62576;55.694;37.494;2023-04-03T08:33:10;28.37;;;12.10;;
74213;SDS011;62576;55.694;37.494;2023-04-03T08:35:42;37.67;;;12.18;;
74213;SDS011;62576;55.694;37.494;2023-04-03T08:38:12;31.05;;;11.45;;
74213;SDS011;62576;55.694;37.494;2023-04-03T08:40:43;30.42;;;11.95;;
74213;SDS011;62576;55.694;37.494;2023-04-03T08:43:20;29.80;;;12.70;;
74213;SDS011;62576;55.694;37.494;2023-04-03T08:46:05;39.70;;;12.27;;
74213;SDS011;62576;55.694;37.494;2023-04-03T08:48:39;33.38;;;12.13;;
74213;SDS011;62576;55.694;37.494;2023-04-03T08:53:46;32.15;;;12.13;;
74213;SDS011;62576;55.694;37.494;2023-04-03T08:56:23;34.15;;;12.23;;
74213;SDS011;62576;55.694;37.494;2023-04-03T08:58:56;33.10;;;11.93;;
74213;SDS011;62576;55.694;37.494;2023-04-03T09:01:30;32.90;;;12.65;;
74213;SDS011;62576;55.694;37.494;2023-04-03T09:04:09;37.35;;;13.40;;
74213;SDS011;62576;55.694;37.494;2023-04-03T09:06:44;30.58;;;12.98;;
74213;SDS011;62576;55.694;37.494;2023-04-03T09:09:23;35.33;;;13.07;;
74213;SDS011;62576;55.694;37.494;2023-04-03T09:12:03;30.27;;;13.38;;
74213;SDS011;62576;55.694;37.494;2023-04-03T09:14:44;27.88;;;13.00;;
74213;SDS011;62576;55.694;37.494;2023-04-03T09:17:28;31.77;;;13.38;;
74213;SDS011;62576;55.694;37.494;2023-04-03T09:20:09;27.80;;;13.32;;
74213;SDS011;62576;55.694;37.494;2023-04-03T09:22:51;27.15;;;13.07;;
74213;SDS011;62576;55.694;37.494;2023-04-03T09:27:53;30.90;;;12.70;;
74213;SDS011;62576;55.694;37.494;2023-04-03T09:30:30;32.00;;;13.50;;
74213;SDS011;62576;55.694;37.494;2023-04-03T09:35:36;29.38;;;12.70;;
74213;SDS011;62576;55.694;37.494;2023-04-03T09:41:02;28.90;;;13.18;;
74213;SDS011;62576;55.694;37.494;2023-04-03T09:43:37;34.53;;;13.40;;
74213;SDS011;62576;55.694;37.494;2023-04-03T09:46:19;34.83;;;14.23;;
74213;SDS011;62576;55.694;37.494;2023-04-03T09:49:00;33.70;;;13.50;;
74213;SDS011;62576;55.694;37.494;2023-04-03T09:51:31;30.60;;;13.82;;
74213;SDS011;62576;55.694;37.494;2023-04-03T09:54:03;32.08;;;12.57;;
74213;SDS011;62576;55.694;37.494;2023-04-03T09:59:26;25.92;;;12.85;;
74213;SDS011;62576;55.694;37.494;2023-04-03T10:01:57;26.25;;;13.45;;
74213;SDS011;62576;55.694;37.494;2023-04-03T10:10:16;26.98;;;13.57;;
74213;SDS011;62576;55.694;37.494;2023-04-03T10:13:03;33.15;;;13.73;;
74213;SDS011;62576;55.694;37.494;2023-04-03T10:15:39;28.85;;;12.90;;
74213;SDS011;62576;55.694;37.494;2023-04-03T10:18:20;25.48;;;13.18;;
74213;SDS011;62576;55.694;37.494;2023-04-03T10:21:02;26.88;;;12.45;;
74213;SDS011;62576;55.694;37.494;2023-04-03T10:23:37;28.23;;;12.52;;
74213;SDS011;62576;55.694;37.494;2023-04-03T10:26:15;25.50;;;12.52;;
74213;SDS011;62576;55.694;37.494;2023-04-03T10:28:56;26.50;;;12.57;;
74213;SDS011;62576;55.694;37.494;2023-04-03T10:31:35;30.40;;;13.40;;
74213;SDS011;62576;55.694;37.494;2023-04-03T10:34:12;32.55;;;13.30;;
74213;SDS011;62576;55.694;37.494;2023-04-03T10:36:52;28.85;;;13.40;;
74213;SDS011;62576;55.694;37.494;2023-04-03T10:39:32;30.10;;;13.35;;
74213;SDS011;62576;55.694;37.494;2023-04-03T10:42:11;32.67;;;13.20;;
74213;SDS011;62576;55.694;37.494;2023-04-03T10:44:55;29.60;;;13.18;;
74213;SDS011;62576;55.694;37.494;2023-04-03T10:47:39;27.10;;;12.50;;
74213;SDS011;62576;55.694;37.494;2023-04-03T10:50:26;29.67;;;13.20;;
74213;SDS011;62576;55.694;37.494;2023-04-03T10:53:22;27.95;;;13.07;;
74213;SDS011;62576;55.694;37.494;2023-04-03T10:56:02;28.15;;;12.75;;
74213;SDS011;62576;55.694;37.494;2023-04-03T10:58:44;25.05;;;12.00;;
74213;SDS011;62576;55.694;37.494;2023-04-03T11:01:28;24.40;;;11.88;;
74213;SDS011;62576;55.694;37.494;2023-04-03T11:04:06;22.90;;;12.07;;
74213;SDS011;62576;55.694;37.494;2023-04-03T11:06:44;29.23;;;12.50;;
74213;SDS011;62576;55.694;37.494;2023-04-03T11:09:19;24.73;;;11.63;;
74213;SDS011;62576;55.694;37.494;2023-04-03T11:11:55;24.75;;;11.80;;
74213;SDS011;62576;55.694;37.494;2023-04-03T11:14:33;32.67;;;12.32;;
74213;SDS011;62576;55.694;37.494;2023-04-03T11:17:09;26.95;;;11.77;;
74213;SDS011;62576;55.694;37.494;2023-04-03T11:19:47;24.13;;;11.93;;
74213;SDS011;62576;55.694;37.494;2023-04-03T11:22:23;23.67;;;10.82;;
74213;SDS011;62576;55.694;37.494;2023-04-03T11:25:02;22.17;;;12.02;;
74213;SDS011;62576;55.694;37.494;2023-04-03T11:27:38;21.23;;;11.15;;
74213;SDS011;62576;55.694;37.494;2023-04-03T11:30:16;26.27;;;11.75;;
74213;SDS011;62576;55.694;37.494;2023-04-03T11:33:03;29.30;;;11.02;;
74213;SDS011;62576;55.694;37.494;2023-04-03T11:35:46;24.08;;;10.85;;
74213;SDS011;62576;55.694;37.494;2023-04-03T11:38:21;21.98;;;10.52;;
74213;SDS011;62576;55.694;37.494;2023-04-03T11:40:57;26.67;;;10.57;;
74213;SDS011;62576;55.694;37.494;2023-04-03T11:43:28;22.90;;;11.40;;
74213;SDS011;62576;55.694;37.494;2023-04-03T11:46:02;23.25;;;12.10;;
74213;SDS011;62576;55.694;37.494;2023-04-03T11:48:45;25.92;;;11.48;;
74213;SDS011;62576;55.694;37.494;2023-04-03T11:51:40;21.77;;;10.73;;
74213;SDS011;62576;55.694;37.494;2023-04-03T12:09:21;23.38;;;11.15;;
74213;SDS011;62576;55.694;37.494;2023-04-03T12:11:54;26.08;;;10.95;;
74213;SDS011;62576;55.694;37.494;2023-04-03T12:14:26;24.92;;;10.15;;
74213;SDS011;62576;55.694;37.494;2023-04-03T12:16:57;21.50;;;10.70;;
74213;SDS011;62576;55.694;37.494;2023-04-03T12:19:37;22.15;;;10.15;;
74213;SDS011;62576;55.694;37.494;2023-04-03T12:22:18;25.25;;;10.52;;
74213;SDS011;62576;55.694;37.494;2023-04-03T12:24:50;21.98;;;10.52;;
74213;SDS011;62576;55.694;37.494;2023-04-03T12:27:26;25.03;;;10.83;;
74213;SDS011;62576;55.694;37.494;2023-04-03T12:30:04;22.35;;;11.05;;
74213;SDS011;62576;55.694;37.494;2023-04-03T12:32:44;21.45;;;10.93;;
74213;SDS011;62576;55.694;37.494;2023-04-03T12:35:37;23.55;;;11.13;;
74213;SDS011;62576;55.694;37.494;2023-04-03T12:38:26;25.85;;;10.65;;
74213;SDS011;62576;55.694;37.494;2023-04-03T12:44:13;22.38;;;9.80;;
74213;SDS011;62576;55.694;37.494;2023-04-03T12:46:58;25.40;;;10.38;;
74213;SDS011;62576;55.694;37.494;2023-04-03T12:49:33;18.77;;;9.63;;
74213;SDS011;62576;55.694;37.494;2023-04-03T12:52:06;22.00;;;10.05;;
74213;SDS011;62576;55.694;37.494;2023-04-03T12:54:48;23.77;;;9.27;;
74213;SDS011;62576;55.694;37.494;2023-04-03T12:57:20;21.77;;;9.38;;
74213;SDS011;62576;55.694;37.494;2023-04-03T13:00:18;17.35;;;8.65;;
74213;SDS011;62576;55.694;37.494;2023-04-03T13:03:01;17.48;;;8.35;;
74213;SDS011;62576;55.694;37.494;2023-04-03T13:08:12;17.33;;;8.90;;
74213;SDS011;62576;55.694;37.494;2023-04-03T13:10:46;16.02;;;7.03;;
74213;SDS011;62576;55.694;37.494;2023-04-03T13:13:21;18.05;;;7.10;;
74213;SDS011;62576;55.694;37.494;2023-04-03T13:15:53;15.48;;;7.07;;
74213;SDS011;62576;55.694;37.494;2023-04-03T13:18:26;19.35;;;6.75;;
74213;SDS011;62576;55.694;37.494;2023-04-03T13:21:01;15.57;;;6.68;;
74213;SDS011;62576;55.694;37.494;2023-04-03T13:23:38;16.98;;;6.68;;
74213;SDS011;62576;55.694;37.494;2023-04-03T13:26:12;18.83;;;7.25;;
74213;SDS011;62576;55.694;37.494;2023-04-03T13:31:18;17.15;;;6.53;;
74213;SDS011;62576;55.694;37.494;2023-04-03T13:33:54;13.95;;;6.15;;
74213;SDS011;62576;55.694;37.494;2023-04-03T13:36:29;12.23;;;6.05;;
74213;SDS011;62576;55.694;37.494;2023-04-03T13:39:05;11.02;;;5.47;;
74213;SDS011;62576;55.694;37.494;2023-04-03T13:41:48;13.93;;;6.50;;
74213;SDS011;62576;55.694;37.494;2023-04-03T13:50:00;11.57;;;5.78;;
74213;SDS011;62576;55.694;37.494;2023-04-03T13:52:32;13.30;;;5.75;;
74213;SDS011;62576;55.694;37.494;2023-04-03T13:55:17;11.27;;;5.68;;
74213;SDS011;62576;55.694;37.494;2023-04-03T13:57:56;14.85;;;6.28;;
74213;SDS011;62576;55.694;37.494;2023-04-03T14:00:30;15.45;;;6.00;;
74213;SDS011;62576;55.694;37.494;2023-04-03T14:03:17;10.77;;;6.07;;
74213;SDS011;62576;55.694;37.494;2023-04-03T14:05:55;15.10;;;5.88;;
74213;SDS011;62576;55.694;37.494;2023-04-03T14:08:29;10.70;;;5.65;;
74213;SDS011;62576;55.694;37.494;2023-04-03T14:11:02;13.82;;;6.55;;
74213;SDS011;62576;55.694;37.494;2023-04-03T14:13:33;9.53;;;6.00;;
74213;SDS011;62576;55.694;37.494;2023-04-03T14:16:04;12.25;;;6.30;;
74213;SDS011;62576;55.694;37.494;2023-04-03T14:18:35;11.90;;;6.32;;
74213;SDS011;62576;55.694;37.494;2023-04-03T14:21:07;15.63;;;6.10;;
74213;SDS011;62576;55.694;37.494;2023-04-03T14:23:38;17.15;;;6.82;;
74213;SDS011;62576;55.694;37.494;2023-04-03T14:26:12;15.55;;;6.55;;
74213;SDS011;62576;55.694;37.494;2023-04-03T14:28:46;14.32;;;6.60;;
74213;SDS011;62576;55.694;37.494;2023-04-03T14:31:23;16.52;;;6.90;;
74213;SDS011;62576;55.694;37.494;2023-04-03T14:33:55;15.52;;;7.13;;
74213;SDS011;62576;55.694;37.494;2023-04-03T14:36:26;12.98;;;6.93;;
74213;SDS011;62576;55.694;37.494;2023-04-03T14:38:58;19.10;;;7.55;;
74213;SDS011;62576;55.694;37.494;2023-04-03T14:41:34;11.75;;;6.43;;
74213;SDS011;62576;55.694;37.494;2023-04-03T14:44:04;17.45;;;7.22;;
74213;SDS011;62576;55.694;37.494;2023-04-03T14:46:36;18.00;;;6.97;;
74213;SDS011;62576;55.694;37.494;2023-04-03T14:49:09;16.02;;;6.68;;
74213;SDS011;62576;55.694;37.494;2023-04-03T14:54:17;14.13;;;7.03;;
74213;SDS011;62576;55.694;37.494;2023-04-03T14:56:55;16.30;;;7.40;;
74213;SDS011;62576;55.694;37.494;2023-04-03T14:59:27;14.20;;;7.05;;
74213;SDS011;62576;55.694;37.494;2023-04-03T15:02:00;14.50;;;7.18;;
74213;SDS011;62576;55.694;37.494;2023-04-03T15:04:30;14.18;;;6.85;;
74213;SDS011;62576;55.694;37.494;2023-04-03T15:07:00;17.42;;;6.70;;
74213;SDS011;62576;55.694;37.494;2023-04-03T15:09:31;15.65;;;6.80;;
74213;SDS011;62576;55.694;37.494;2023-04-03T15:12:04;13.32;;;6.53;;
74213;SDS011;62576;55.694;37.494;2023-04-03T15:14:34;16.33;;;6.88;;
74213;SDS011;62576;55.694;37.494;2023-04-03T15:17:05;12.35;;;6.43;;
74213;SDS011;62576;55.694;37.494;2023-04-03T15:19:38;12.50;;;6.13;;
74213;SDS011;62576;55.694;37.494;2023-04-03T15:22:09;12.35;;;6.63;;
74213;SDS011;62576;55.694;37.494;2023-04-03T15:24:43;16.33;;;6.82;;
74213;SDS011;62576;55.694;37.494;2023-04-03T15:27:18;12.48;;;6.80;;
74213;SDS011;62576;55.694;37.494;2023-04-03T15:30:04;17.88;;;6.30;;
74213;SDS011;62576;55.694;37.494;2023-04-03T15:32:36;18.00;;;6.88;;
74213;SDS011;62576;55.694;37.494;2023-04-03T15:35:07;14.52;;;6.47;;
74213;SDS011;62576;55.694;37.494;2023-04-03T15:37:37;13.20;;;7.00;;
74213;SDS011;62576;55.694;37.494;2023-04-03T15:40:08;15.63;;;6.90;;
74213;SDS011;62576;55.694;37.494;2023-04-03T15:42:41;13.57;;;6.50;;
74213;SDS011;62576;55.694;37.494;2023-04-03T15:45:13;20.13;;;7.00;;
74213;SDS011;62576;55.694;37.494;2023-04-03T15:47:43;16.20;;;7.28;;
74213;SDS011;62576;55.694;37.494;2023-04-03T15:50:14;18.85;;;7.80;;
74213;SDS011;62576;55.694;37.494;2023-04-03T15:52:42;16.25;;;6.78;;